createdAt,value
2023-02-22T00:00:49.974Z,13.62
2023-02-22T00:05:55.317Z,12.89
2023-02-22T00:10:58.533Z,12.96
2023-02-22T00:16:03.457Z,13.06
2023-02-22T00:21:10.521Z,13.14
2023-02-22T00:26:18.148Z,13.17
2023-02-22T00:31:23.453Z,12.91
2023-02-22T00:36:26.300Z,12.72
2023-02-22T00:41:29.583Z,12.78
2023-02-22T00:46:33.740Z,12.72
2023-02-22T00:51:36.740Z,12.73
2023-02-22T00:56:39.601Z,12.18
2023-02-22T01:01:44.019Z,12.29
2023-02-22T01:06:46.759Z,12.31
2023-02-22T01:11:49.961Z,12.27
2023-02-22T01:16:55.224Z,12.39
2023-02-22T01:21:58.839Z,12.70
2023-02-22T01:27:02.550Z,12.79
2023-02-22T01:32:09.453Z,12.40
2023-02-22T01:37:12.482Z,12.85
2023-02-22T01:42:15.249Z,12.51
2023-02-22T01:47:19.335Z,12.27
2023-02-22T01:52:23.972Z,12.42
2023-02-22T01:57:30.220Z,12.52
2023-02-22T02:02:34.373Z,12.53
2023-02-22T02:07:39.763Z,12.63
2023-02-22T02:12:45.465Z,12.41
2023-02-22T02:17:51.537Z,12.45
2023-02-22T02:23:06.175Z,12.32
2023-02-22T02:28:37.070Z,12.43
2023-02-22T02:33:46.960Z,12.47
2023-02-22T02:38:56.651Z,12.52
2023-02-22T02:44:03.480Z,12.27
2023-02-22T02:49:14.207Z,12.53
2023-02-22T02:54:17.823Z,12.61
2023-02-22T02:59:27.115Z,11.97
2023-02-22T03:04:46.038Z,12.16
2023-02-22T03:10:00.571Z,12.15
2023-02-22T03:15:14.547Z,11.94
2023-02-22T03:20:31.547Z,11.92
2023-02-22T03:25:41.290Z,11.94
2023-02-22T03:30:49.913Z,11.77
2023-02-22T03:35:57.747Z,12.05
2023-02-22T03:41:03.772Z,12.03
2023-02-22T03:46:29.301Z,12.27
2023-02-22T03:51:34.344Z,12.38
2023-02-22T03:56:47.352Z,12.57
2023-02-22T04:01:51.093Z,12.37
2023-02-22T04:06:55.785Z,12.30
2023-02-22T04:11:59.463Z,12.55
2023-02-22T04:17:03.709Z,12.60
2023-02-22T04:22:08.656Z,12.53
2023-02-22T04:27:11.563Z,12.67
2023-02-22T04:32:15.297Z,12.60
2023-02-22T04:37:19.815Z,12.34
2023-02-22T04:42:22.658Z,12.45
2023-02-22T04:47:25.956Z,12.49
2023-02-22T04:52:30.221Z,12.49
2023-02-22T04:57:33.559Z,12.44
2023-02-22T05:02:36.632Z,12.33
2023-02-22T05:07:41.064Z,12.56
2023-02-22T05:12:43.873Z,12.63
2023-02-22T05:17:46.806Z,12.62
2023-02-22T05:22:51.990Z,12.60
2023-02-22T05:27:56.340Z,12.37
2023-02-22T05:33:00.206Z,12.51
2023-02-22T05:38:04.772Z,12.41
2023-02-22T05:43:07.724Z,12.32
2023-02-22T05:48:10.453Z,12.28
2023-02-22T05:53:14.657Z,12.63
2023-02-22T05:58:17.508Z,12.29
2023-02-22T06:03:20.332Z,12.46
2023-02-22T06:08:27.009Z,12.43
2023-02-22T06:13:33.353Z,12.26
2023-02-22T06:18:36.116Z,12.15
2023-02-22T06:23:40.321Z,12.78
2023-02-22T06:28:43.045Z,12.82
2023-02-22T06:33:51.450Z,12.39
2023-02-22T06:38:57.239Z,12.73
2023-02-22T06:43:59.996Z,12.93
2023-02-22T06:49:02.698Z,12.89
2023-02-22T06:54:07.120Z,12.95
2023-02-22T06:59:09.904Z,12.45
2023-02-22T07:04:12.623Z,12.66
2023-02-22T07:09:19.903Z,12.87
2023-02-22T07:14:23.216Z,13.14
2023-02-22T07:19:26.037Z,12.74
2023-02-22T07:24:30.244Z,12.42
2023-02-22T07:29:35.960Z,12.67
2023-02-22T07:34:39.446Z,12.74
2023-02-22T07:39:43.807Z,12.13
2023-02-22T07:44:46.821Z,12.20
2023-02-22T07:49:55.537Z,12.36
2023-02-22T07:55:07.177Z,12.60
2023-02-22T08:00:15.152Z,12.41
2023-02-22T08:05:19.061Z,12.73
2023-02-22T08:11:02.767Z,13.01
2023-02-22T08:16:08.020Z,13.11
2023-02-22T08:21:10.730Z,13.33
2023-02-22T08:26:18.437Z,13.47
2023-02-22T08:31:21.415Z,13.37
2023-02-22T08:36:25.013Z,13.75
2023-02-22T08:41:30.602Z,13.71
2023-02-22T08:46:39.393Z,12.82
2023-02-22T08:51:42.327Z,13.08
2023-02-22T08:56:46.756Z,13.44
2023-02-22T09:01:49.802Z,13.53
2023-02-22T09:07:18.521Z,13.40
2023-02-22T09:12:29.625Z,12.84
2023-02-22T09:17:38.046Z,13.28
2023-02-22T09:22:43.392Z,13.33
2023-02-22T09:27:49.717Z,13.53
2023-02-22T09:32:54.116Z,14.02
2023-02-22T09:37:57.610Z,13.48
2023-02-22T09:43:14.006Z,13.69
2023-02-22T09:48:22.334Z,13.83
2023-02-22T09:53:30.393Z,14.04
2023-02-22T09:58:41.890Z,14.22
2023-02-22T10:03:51.592Z,14.22
2023-02-22T10:08:58.134Z,14.31
2023-02-22T10:14:09.234Z,15.05
2023-02-22T10:19:26.548Z,14.85
2023-02-22T10:24:39.704Z,15.03
2023-02-22T10:29:48.662Z,15.35
2023-02-22T10:34:54.486Z,15.39
2023-02-22T10:40:05.829Z,15.46
2023-02-22T10:45:22.800Z,15.45
2023-02-22T10:50:27.559Z,15.40
2023-02-22T10:55:30.406Z,15.02
2023-02-22T11:00:38.238Z,15.98
2023-02-22T11:05:42.154Z,15.61
2023-02-22T11:10:45.084Z,16.26
2023-02-22T11:15:50.515Z,15.96
2023-02-22T11:21:01.964Z,15.33
2023-02-22T11:26:09.700Z,15.22
2023-02-22T11:31:17.571Z,16.00
2023-02-22T11:36:32.708Z,15.74
2023-02-22T11:41:36.159Z,15.85
2023-02-22T11:46:42.816Z,16.62
2023-02-22T11:52:01.003Z,16.56
2023-02-22T11:57:22.165Z,16.73
2023-02-22T12:02:51.808Z,16.90
2023-02-22T12:08:19.743Z,17.11
2023-02-22T12:13:36.780Z,17.17
2023-02-22T12:18:53.417Z,16.90
2023-02-22T12:24:03.281Z,17.13
2023-02-22T12:29:14.464Z,16.45
2023-02-22T12:34:30.373Z,16.97
2023-02-22T12:39:52.823Z,16.84
2023-02-22T12:45:04.079Z,17.18
2023-02-22T12:50:16.022Z,17.00
2023-02-22T12:55:24.984Z,16.97
2023-02-22T13:00:33.127Z,16.97
2023-02-22T13:05:40.438Z,16.52
2023-02-22T13:10:59.043Z,15.89
2023-02-22T13:16:11.697Z,16.17
2023-02-22T13:21:20.996Z,15.83
2023-02-22T13:26:28.886Z,15.73
2023-02-22T13:31:45.366Z,15.93
2023-02-22T13:37:04.135Z,15.97
2023-02-22T13:42:19.335Z,15.73
2023-02-22T13:47:46.679Z,16.05
2023-02-22T13:52:52.720Z,16.23
2023-02-22T13:58:03.343Z,16.30
2023-02-22T14:03:30.024Z,16.63
2023-02-22T14:08:51.997Z,15.96
2023-02-22T14:14:19.127Z,15.51
2023-02-22T14:19:23.776Z,15.72
2023-02-22T14:24:28.126Z,15.92
2023-02-22T14:29:32.042Z,15.68
2023-02-22T14:34:49.742Z,16.22
2023-02-22T14:40:02.138Z,15.53
2023-02-22T14:45:17.059Z,15.86
2023-02-22T14:50:24.821Z,16.05
2023-02-22T14:55:32.437Z,15.58
2023-02-22T15:00:41.166Z,15.67
2023-02-22T15:05:43.924Z,15.38
2023-02-22T15:10:54.280Z,15.72
2023-02-22T15:16:01.892Z,15.70
2023-02-22T15:21:11.002Z,15.60
2023-02-22T15:26:23.815Z,15.56
2023-02-22T15:31:32.563Z,15.02
2023-02-22T15:36:35.403Z,15.45
2023-02-22T15:41:40.575Z,15.40
2023-02-22T15:46:43.387Z,15.07
2023-02-22T15:51:51.583Z,15.27
2023-02-22T15:56:56.632Z,15.27
2023-02-22T16:02:00.484Z,15.04
2023-02-22T16:07:16.800Z,14.91
2023-02-22T16:12:28.231Z,14.94
2023-02-22T16:17:36.868Z,14.73
2023-02-22T16:22:41.021Z,15.23
2023-02-22T16:27:48.285Z,15.12
2023-02-22T16:32:54.066Z,15.00
2023-02-22T16:38:00.296Z,14.66
2023-02-22T16:43:07.457Z,14.77
2023-02-22T16:48:16.167Z,13.92
2023-02-22T16:53:20.896Z,14.29
2023-02-22T16:58:27.851Z,14.14
2023-02-22T17:03:30.642Z,14.23
2023-02-22T17:08:33.380Z,13.91
2023-02-22T17:13:39.395Z,13.88
2023-02-22T17:18:42.122Z,14.14
2023-02-22T17:23:46.108Z,13.98
2023-02-22T17:28:50.625Z,14.21
2023-02-22T17:33:53.470Z,14.16
2023-02-22T17:38:56.624Z,14.32
2023-02-22T17:44:00.738Z,14.01
2023-02-22T17:49:04.236Z,14.08
2023-02-22T17:54:08.265Z,14.02
2023-02-22T17:59:13.179Z,14.39
2023-02-22T18:04:15.941Z,14.23
2023-02-22T18:09:20.275Z,13.63
2023-02-22T18:14:24.877Z,13.87
2023-02-22T18:19:29.478Z,13.96
2023-02-22T18:24:34.500Z,13.91
2023-02-22T18:29:39.486Z,14.08
2023-02-22T18:34:43.556Z,13.91
2023-02-22T18:39:46.538Z,13.99
2023-02-22T18:44:51.115Z,13.90
2023-02-22T18:49:53.999Z,13.57
2023-02-22T18:55:08.865Z,13.72
2023-02-22T19:00:34.340Z,13.16
2023-02-22T19:05:40.765Z,13.16
2023-02-22T19:10:43.622Z,13.35
2023-02-22T19:15:48.921Z,13.36
2023-02-22T19:20:56.774Z,13.12
2023-02-22T19:25:59.546Z,13.28
2023-02-22T19:31:18.477Z,13.50
2023-02-22T19:36:23.946Z,13.05
2023-02-22T19:41:26.704Z,13.27
2023-02-22T19:46:31.082Z,13.23
2023-02-22T19:51:34.389Z,13.18
2023-02-22T19:56:37.252Z,13.36
2023-02-22T20:01:44.207Z,13.09
2023-02-22T20:21:15.738Z,13.23
2023-02-22T20:26:24.150Z,13.08
2023-02-22T20:31:32.388Z,12.68
2023-02-22T20:37:06.784Z,13.00
2023-02-22T20:42:15.586Z,13.13
2023-02-22T20:54:48.359Z,12.67
2023-02-22T21:00:12.690Z,12.41
2023-02-22T21:06:07.271Z,12.52
2023-02-22T21:11:26.163Z,12.71
2023-02-22T21:35:02.436Z,12.88
2023-02-22T21:40:29.678Z,12.32
2023-02-22T21:45:57.228Z,12.41
2023-02-22T21:51:13.889Z,12.50
2023-02-22T21:56:20.198Z,12.46
2023-02-22T22:01:27.145Z,12.40
2023-02-22T22:06:34.373Z,12.73
2023-02-22T22:11:37.329Z,12.52
2023-02-22T22:16:40.453Z,12.65
2023-02-22T22:21:46.582Z,12.36
2023-02-22T22:26:51.066Z,12.75
2023-02-22T22:31:54.469Z,12.53
2023-02-22T22:36:58.999Z,12.59
2023-02-22T22:42:01.851Z,12.52
2023-02-22T22:47:05.881Z,12.04
2023-02-22T22:52:11.385Z,12.21
2023-02-22T22:57:14.614Z,11.74
2023-02-22T23:02:20.487Z,11.83
2023-02-22T23:07:24.616Z,11.97
2023-02-22T23:12:31.467Z,11.85
2023-02-22T23:17:41.175Z,12.12
2023-02-22T23:22:47.235Z,11.68
2023-02-22T23:27:53.096Z,11.88
2023-02-22T23:32:57.437Z,12.10
2023-02-22T23:38:01.712Z,12.04
2023-02-22T23:43:05.758Z,11.57
2023-02-22T23:48:08.498Z,11.78
2023-02-22T23:53:15.237Z,11.76
2023-02-22T23:58:17.970Z,11.38
